BAW4511 EGGP-LGMK
Flight info
| Callsign | BAW4511 |
|---|---|
| Flight time | 3h 44m |
| Altitude | 35000 |
| Route | BARTN1T BARTN UL975 DESIG L603 LAMSO DCT EVELI DCT OTMEC DCT MISGO DCT DODEN DCT NEGIX DCT DINKU/N0451F370 DCT BESNI DCT LATLO DCT OBEDI DCT GORPA DCT DEVUL DCT REMSO DCT MEDUX UM867 KOGAT DCT ERANA UL737 TSL UN130 MES UN139 ERIMA R32 LETSO LETSO1X |
| Aircraft | A320/M-SDE3FGHIRWY/LB1 |
Departure
| Time | 2026-05-05 16:09 |
|---|---|
| Airport | Liverpool John Lennon Airport (EGGP) |
Arrival
| Time | 2026-05-05 19:53 |
|---|---|
| Airport | Mykonos Island National Airport (LGMK) |
| Time | Latitude | Longitude | Altitude | Speed | Heading |
|---|---|---|---|---|---|
| 2026-05-05 15:35 | 53.33650 | -2.85865 | 89 ft | 0 kts | 355° |
| 2026-05-05 15:47 | 53.33649 | -2.85865 | 89 ft | 0 kts | 355° |
| 2026-05-05 16:01 | 53.33648 | -2.85865 | 89 ft | 1 kts | 355° |
| 2026-05-05 16:01 | 53.33625 | -2.85865 | 89 ft | 4 kts | 17° |
| 2026-05-05 16:02 | 53.33603 | -2.85886 | 90 ft | 4 kts | 52° |
| 2026-05-05 16:02 | 53.33593 | -2.85920 | 91 ft | 1 kts | 85° |
| 2026-05-05 16:02 | 53.33593 | -2.85921 | 91 ft | 3 kts | 85° |
| 2026-05-05 16:04 | 53.33594 | -2.85904 | 90 ft | 3 kts | 85° |
| 2026-05-05 16:04 | 53.33597 | -2.85840 | 89 ft | 8 kts | 85° |
| 2026-05-05 16:05 | 53.33602 | -2.85732 | 89 ft | 11 kts | 86° |
| 2026-05-05 16:05 | 53.33609 | -2.85586 | 89 ft | 14 kts | 85° |
| 2026-05-05 16:05 | 53.33535 | -2.85506 | 91 ft | 15 kts | 167° |
| 2026-05-05 16:05 | 53.33513 | -2.85336 | 90 ft | 18 kts | 85° |
| 2026-05-05 16:06 | 53.33524 | -2.85113 | 91 ft | 21 kts | 84° |
| 2026-05-05 16:06 | 53.33535 | -2.84851 | 90 ft | 24 kts | 85° |
| 2026-05-05 16:06 | 53.33549 | -2.84550 | 89 ft | 28 kts | 85° |
| 2026-05-05 16:06 | 53.33565 | -2.84211 | 89 ft | 31 kts | 85° |
| 2026-05-05 16:07 | 53.33583 | -2.83834 | 93 ft | 34 kts | 85° |
| 2026-05-05 16:07 | 53.33601 | -2.83463 | 89 ft | 27 kts | 86° |
| 2026-05-05 16:07 | 53.33540 | -2.83305 | 89 ft | 0 kts | 176° |
| 2026-05-05 16:08 | 53.33537 | -2.83305 | 89 ft | 2 kts | 176° |
| 2026-05-05 16:08 | 53.33511 | -2.83301 | 89 ft | 6 kts | 175° |
| 2026-05-05 16:08 | 53.33458 | -2.83303 | 90 ft | 9 kts | 206° |
| 2026-05-05 16:08 | 53.33434 | -2.83425 | 91 ft | 19 kts | 265° |
| 2026-05-05 16:09 | 53.33403 | -2.84132 | 89 ft | 99 kts | 265° |
| 2026-05-05 16:09 | 53.33351 | -2.85623 | 198 ft | 148 kts | 269° |
| 2026-05-05 16:09 | 53.33300 | -2.87384 | 898 ft | 158 kts | 271° |
| 2026-05-05 16:09 | 53.33226 | -2.89272 | 1620 ft | 164 kts | 270° |
| 2026-05-05 16:10 | 53.33132 | -2.91184 | 2308 ft | 166 kts | 273° |
| 2026-05-05 16:10 | 53.33315 | -2.93033 | 3012 ft | 160 kts | 300° |
| 2026-05-05 16:10 | 53.34104 | -2.94324 | 3512 ft | 168 kts | 337° |
| 2026-05-05 16:10 | 53.35303 | -2.94645 | 3873 ft | 186 kts | 9° |
| 2026-05-05 16:11 | 53.36587 | -2.94020 | 4041 ft | 196 kts | 20° |
| 2026-05-05 16:11 | 53.40473 | -2.91785 | 4012 ft | 196 kts | 27° |
| 2026-05-05 16:12 | 53.41508 | -2.90378 | 4010 ft | 196 kts | 54° |
| 2026-05-05 16:12 | 53.42320 | -2.85906 | 4013 ft | 205 kts | 78° |
| 2026-05-05 16:13 | 53.43176 | -2.78173 | 3986 ft | 229 kts | 79° |
| 2026-05-05 16:13 | 53.43465 | -2.75549 | 3990 ft | 228 kts | 78° |
| 2026-05-05 16:13 | 53.43754 | -2.72929 | 3988 ft | 229 kts | 78° |
| 2026-05-05 16:14 | 53.44343 | -2.67662 | 3981 ft | 240 kts | 78° |
| 2026-05-05 16:14 | 53.44962 | -2.62086 | 3981 ft | 245 kts | 78° |
| 2026-05-05 16:15 | 53.45583 | -2.56422 | 3986 ft | 253 kts | 78° |
| 2026-05-05 16:15 | 53.46220 | -2.50534 | 3986 ft | 258 kts | 79° |
| 2026-05-05 16:16 | 53.46860 | -2.44611 | 3979 ft | 257 kts | 78° |
| 2026-05-05 16:16 | 53.47505 | -2.38626 | 4771 ft | 262 kts | 79° |
| 2026-05-05 16:17 | 53.48155 | -2.32592 | 6640 ft | 265 kts | 78° |
| 2026-05-05 16:17 | 53.48490 | -2.29503 | 7397 ft | 272 kts | 78° |
| 2026-05-05 16:18 | 53.49180 | -2.23099 | 8880 ft | 285 kts | 78° |
| 2026-05-05 16:18 | 53.49532 | -2.19797 | 9328 ft | 292 kts | 78° |
| 2026-05-05 16:18 | 53.50247 | -2.13015 | 10070 ft | 297 kts | 79° |
| 2026-05-05 16:19 | 53.50610 | -2.09567 | 10478 ft | 314 kts | 79° |
| 2026-05-05 16:19 | 53.51001 | -2.05846 | 10764 ft | 332 kts | 79° |
| 2026-05-05 16:19 | 53.51817 | -1.98017 | 11914 ft | 345 kts | 79° |
| 2026-05-05 16:20 | 53.52346 | -1.89880 | 12641 ft | 359 kts | 91° |
| 2026-05-05 16:20 | 53.51357 | -1.81399 | 13381 ft | 381 kts | 106° |
| 2026-05-05 16:21 | 53.49841 | -1.72780 | 14535 ft | 388 kts | 107° |
| 2026-05-05 16:22 | 53.47490 | -1.59566 | 16106 ft | 398 kts | 107° |
| 2026-05-05 16:22 | 53.45888 | -1.50582 | 17080 ft | 405 kts | 108° |
| 2026-05-05 16:23 | 53.44243 | -1.41437 | 18127 ft | 412 kts | 108° |
| 2026-05-05 16:23 | 53.43404 | -1.36822 | 18613 ft | 416 kts | 108° |
| 2026-05-05 16:23 | 53.41701 | -1.27468 | 19553 ft | 422 kts | 108° |
| 2026-05-05 16:24 | 53.40844 | -1.22743 | 20001 ft | 425 kts | 108° |
| 2026-05-05 16:24 | 53.39982 | -1.17981 | 20284 ft | 431 kts | 109° |
| 2026-05-05 16:24 | 53.38221 | -1.08287 | 21103 ft | 438 kts | 109° |
| 2026-05-05 16:25 | 53.37327 | -1.03387 | 21520 ft | 441 kts | 109° |
| 2026-05-05 16:25 | 53.35509 | -0.93519 | 22304 ft | 447 kts | 109° |
| 2026-05-05 16:25 | 53.34588 | -0.88544 | 22701 ft | 449 kts | 109° |
| 2026-05-05 16:26 | 53.32721 | -0.78521 | 23498 ft | 454 kts | 110° |
| 2026-05-05 16:26 | 53.30835 | -0.68456 | 24184 ft | 458 kts | 109° |
| 2026-05-05 16:27 | 53.29884 | -0.63365 | 24536 ft | 459 kts | 109° |
| 2026-05-05 16:27 | 53.28932 | -0.58266 | 24895 ft | 461 kts | 109° |
| 2026-05-05 16:27 | 53.27970 | -0.53149 | 25259 ft | 462 kts | 109° |
| 2026-05-05 16:27 | 53.27001 | -0.48027 | 25600 ft | 463 kts | 109° |
| 2026-05-05 16:28 | 53.26024 | -0.42885 | 25951 ft | 465 kts | 109° |
| 2026-05-05 16:28 | 53.25046 | -0.37751 | 26344 ft | 464 kts | 110° |
| 2026-05-05 16:28 | 53.24070 | -0.32627 | 26873 ft | 461 kts | 110° |
| 2026-05-05 16:28 | 53.23102 | -0.27548 | 27401 ft | 459 kts | 110° |
| 2026-05-05 16:29 | 53.22133 | -0.22478 | 27885 ft | 457 kts | 110° |
| 2026-05-05 16:29 | 53.21167 | -0.17435 | 28373 ft | 456 kts | 110° |
| 2026-05-05 16:29 | 53.20201 | -0.12421 | 28874 ft | 454 kts | 110° |
| 2026-05-05 16:29 | 53.19230 | -0.07410 | 29386 ft | 453 kts | 110° |
| 2026-05-05 16:30 | 53.18262 | -0.02426 | 29907 ft | 451 kts | 110° |
| 2026-05-05 16:30 | 53.17297 | 0.02535 | 30322 ft | 450 kts | 111° |
| 2026-05-05 16:30 | 53.16334 | 0.07499 | 30712 ft | 450 kts | 110° |
| 2026-05-05 16:30 | 53.15373 | 0.12459 | 31119 ft | 449 kts | 110° |
| 2026-05-05 16:31 | 53.14411 | 0.17399 | 31547 ft | 448 kts | 110° |
| 2026-05-05 16:31 | 53.13445 | 0.22323 | 31988 ft | 446 kts | 110° |
| 2026-05-05 16:31 | 53.12476 | 0.27250 | 32432 ft | 445 kts | 110° |
| 2026-05-05 16:31 | 53.11515 | 0.32113 | 32854 ft | 444 kts | 110° |
| 2026-05-05 16:32 | 53.10550 | 0.36984 | 33288 ft | 443 kts | 110° |
| 2026-05-05 16:32 | 53.09585 | 0.41848 | 33703 ft | 442 kts | 110° |
| 2026-05-05 16:32 | 53.08623 | 0.46703 | 34093 ft | 441 kts | 110° |
| 2026-05-05 16:32 | 53.07663 | 0.51536 | 34420 ft | 440 kts | 110° |
| 2026-05-05 16:33 | 53.06697 | 0.56375 | 34665 ft | 442 kts | 110° |
| 2026-05-05 16:33 | 53.05724 | 0.61230 | 34904 ft | 443 kts | 110° |
| 2026-05-05 16:33 | 53.03771 | 0.70941 | 34991 ft | 443 kts | 110° |
| 2026-05-05 16:34 | 53.01811 | 0.80661 | 34992 ft | 443 kts | 110° |
| 2026-05-05 16:34 | 52.99844 | 0.90366 | 34979 ft | 443 kts | 111° |
| 2026-05-05 16:35 | 52.97918 | 1.00021 | 34984 ft | 444 kts | 106° |
| 2026-05-05 16:35 | 52.96708 | 1.10111 | 34977 ft | 447 kts | 103° |
| 2026-05-05 16:36 | 52.95544 | 1.20236 | 34982 ft | 447 kts | 103° |
| 2026-05-05 16:36 | 52.94362 | 1.30354 | 34980 ft | 447 kts | 103° |
| 2026-05-05 16:37 | 52.93175 | 1.40474 | 34977 ft | 447 kts | 103° |
| 2026-05-05 16:37 | 52.91985 | 1.50583 | 34980 ft | 447 kts | 103° |
| 2026-05-05 16:38 | 52.90773 | 1.60723 | 34976 ft | 449 kts | 104° |
| 2026-05-05 16:38 | 52.89548 | 1.70887 | 34975 ft | 450 kts | 104° |
| 2026-05-05 16:39 | 52.88318 | 1.81047 | 34975 ft | 450 kts | 104° |
| 2026-05-05 16:39 | 52.87078 | 1.91206 | 34975 ft | 450 kts | 104° |
| 2026-05-05 16:40 | 52.85844 | 2.01289 | 34975 ft | 450 kts | 104° |
| 2026-05-05 16:40 | 52.84584 | 2.11457 | 34977 ft | 452 kts | 104° |
| 2026-05-05 16:41 | 52.83314 | 2.21651 | 34972 ft | 452 kts | 104° |
| 2026-05-05 16:41 | 52.82034 | 2.31831 | 34969 ft | 452 kts | 104° |
| 2026-05-05 16:42 | 52.80743 | 2.42003 | 34969 ft | 452 kts | 104° |
| 2026-05-05 16:42 | 52.79446 | 2.52185 | 34958 ft | 452 kts | 104° |
| 2026-05-05 16:43 | 52.78144 | 2.62340 | 34969 ft | 451 kts | 104° |
| 2026-05-05 16:43 | 52.76827 | 2.72473 | 34969 ft | 451 kts | 104° |
| 2026-05-05 16:44 | 52.75728 | 2.80892 | 34967 ft | 451 kts | 105° |
| 2026-05-05 16:44 | 52.74401 | 2.91011 | 34967 ft | 451 kts | 105° |
| 2026-05-05 16:45 | 52.72914 | 3.01049 | 34963 ft | 448 kts | 113° |
| 2026-05-05 16:45 | 52.70680 | 3.10577 | 34971 ft | 443 kts | 114° |
| 2026-05-05 16:46 | 52.68447 | 3.20022 | 34966 ft | 442 kts | 114° |
| 2026-05-05 16:46 | 52.66218 | 3.29462 | 34973 ft | 442 kts | 114° |
| 2026-05-05 16:47 | 52.64001 | 3.38824 | 34973 ft | 442 kts | 114° |
| 2026-05-05 16:47 | 52.61831 | 3.48301 | 34973 ft | 442 kts | 113° |
| 2026-05-05 16:48 | 52.59751 | 3.57807 | 34967 ft | 440 kts | 113° |
| 2026-05-05 16:48 | 52.57672 | 3.67246 | 34956 ft | 439 kts | 114° |
| 2026-05-05 16:49 | 52.55558 | 3.76649 | 34956 ft | 438 kts | 114° |
| 2026-05-05 16:49 | 52.53430 | 3.86047 | 34945 ft | 438 kts | 114° |
| 2026-05-05 16:50 | 52.51305 | 3.95428 | 34945 ft | 438 kts | 114° |
| 2026-05-05 16:50 | 52.49167 | 4.04804 | 34935 ft | 439 kts | 115° |
| 2026-05-05 16:51 | 52.47019 | 4.14186 | 34934 ft | 440 kts | 115° |
| 2026-05-05 16:51 | 52.44865 | 4.23568 | 34928 ft | 439 kts | 115° |
| 2026-05-05 16:52 | 52.42719 | 4.32860 | 34929 ft | 438 kts | 115° |
| 2026-05-05 16:52 | 52.40556 | 4.42181 | 34923 ft | 438 kts | 115° |
| 2026-05-05 16:53 | 52.38390 | 4.51491 | 34914 ft | 438 kts | 115° |
| 2026-05-05 16:53 | 52.36212 | 4.60801 | 34910 ft | 438 kts | 115° |
| 2026-05-05 16:54 | 52.34029 | 4.70101 | 34920 ft | 438 kts | 115° |
| 2026-05-05 16:54 | 52.31840 | 4.79385 | 34920 ft | 438 kts | 115° |
| 2026-05-05 16:55 | 52.29623 | 4.88725 | 34920 ft | 438 kts | 116° |
| 2026-05-05 16:55 | 52.27425 | 4.97933 | 34917 ft | 437 kts | 115° |
| 2026-05-05 16:56 | 52.25222 | 5.07156 | 34913 ft | 436 kts | 115° |
| 2026-05-05 16:56 | 52.23017 | 5.16369 | 34908 ft | 436 kts | 115° |
| 2026-05-05 16:57 | 52.20801 | 5.25559 | 34905 ft | 436 kts | 116° |
| 2026-05-05 16:57 | 52.18573 | 5.34750 | 34907 ft | 436 kts | 116° |
| 2026-05-05 16:58 | 52.16344 | 5.43927 | 34896 ft | 437 kts | 116° |
| 2026-05-05 16:58 | 52.14097 | 5.53128 | 34906 ft | 435 kts | 116° |
| 2026-05-05 16:59 | 52.11858 | 5.62270 | 34886 ft | 434 kts | 116° |
| 2026-05-05 16:59 | 52.09610 | 5.71391 | 34898 ft | 434 kts | 116° |
| 2026-05-05 17:00 | 52.07231 | 5.80395 | 34891 ft | 430 kts | 123° |
| 2026-05-05 17:00 | 52.03630 | 5.87985 | 34899 ft | 422 kts | 139° |
| 2026-05-05 17:01 | 51.99479 | 5.94654 | 34913 ft | 418 kts | 140° |
| 2026-05-05 17:01 | 51.95374 | 6.01235 | 34909 ft | 417 kts | 140° |
| 2026-05-05 17:02 | 51.91237 | 6.07848 | 34906 ft | 417 kts | 140° |
| 2026-05-05 17:02 | 51.87105 | 6.14446 | 34895 ft | 416 kts | 140° |
| 2026-05-05 17:03 | 51.82988 | 6.20993 | 34892 ft | 414 kts | 140° |
| 2026-05-05 17:03 | 51.78870 | 6.27510 | 34898 ft | 414 kts | 140° |
| 2026-05-05 17:04 | 51.74756 | 6.34012 | 34887 ft | 414 kts | 140° |
| 2026-05-05 17:04 | 51.70646 | 6.40494 | 34891 ft | 413 kts | 140° |
| 2026-05-05 17:05 | 51.66550 | 6.46923 | 34890 ft | 413 kts | 140° |
| 2026-05-05 17:05 | 51.63084 | 6.52364 | 34890 ft | 413 kts | 140° |
| 2026-05-05 17:06 | 51.58983 | 6.58802 | 34876 ft | 410 kts | 139° |
| 2026-05-05 17:06 | 51.54900 | 6.65183 | 34876 ft | 410 kts | 139° |
| 2026-05-05 17:07 | 51.50808 | 6.71560 | 34871 ft | 410 kts | 139° |
| 2026-05-05 17:07 | 51.46714 | 6.77930 | 34866 ft | 410 kts | 140° |
| 2026-05-05 17:08 | 51.42614 | 6.84271 | 34865 ft | 409 kts | 140° |
| 2026-05-05 17:08 | 51.38515 | 6.90608 | 34860 ft | 410 kts | 140° |
| 2026-05-05 17:09 | 51.34428 | 6.96955 | 34856 ft | 409 kts | 139° |
| 2026-05-05 17:09 | 51.30348 | 7.03278 | 34862 ft | 409 kts | 139° |
| 2026-05-05 17:10 | 51.26265 | 7.09591 | 34858 ft | 409 kts | 139° |
| 2026-05-05 17:10 | 51.22172 | 7.15894 | 34837 ft | 409 kts | 139° |
| 2026-05-05 17:11 | 51.18076 | 7.22183 | 34846 ft | 409 kts | 139° |
| 2026-05-05 17:11 | 51.13968 | 7.28469 | 34836 ft | 409 kts | 139° |
| 2026-05-05 17:12 | 51.09852 | 7.34750 | 34832 ft | 410 kts | 139° |
| 2026-05-05 17:12 | 51.05742 | 7.41019 | 34832 ft | 409 kts | 139° |
| 2026-05-05 17:13 | 51.01635 | 7.47267 | 34831 ft | 409 kts | 139° |
| 2026-05-05 17:13 | 50.97523 | 7.53499 | 34826 ft | 409 kts | 139° |
| 2026-05-05 17:14 | 50.93400 | 7.59737 | 34824 ft | 410 kts | 139° |
| 2026-05-05 17:14 | 50.89298 | 7.65937 | 34828 ft | 410 kts | 139° |
| 2026-05-05 17:15 | 50.85132 | 7.72208 | 34832 ft | 411 kts | 139° |
| 2026-05-05 17:15 | 50.81013 | 7.78377 | 34834 ft | 411 kts | 140° |
| 2026-05-05 17:16 | 50.76864 | 7.84575 | 34832 ft | 410 kts | 140° |
| 2026-05-05 17:16 | 50.72710 | 7.90772 | 34838 ft | 411 kts | 140° |
| 2026-05-05 17:17 | 50.68553 | 7.96957 | 34818 ft | 411 kts | 140° |
| 2026-05-05 17:17 | 50.64388 | 8.03147 | 34837 ft | 412 kts | 140° |
| 2026-05-05 17:18 | 50.60244 | 8.09377 | 34819 ft | 413 kts | 135° |
| 2026-05-05 17:18 | 50.56619 | 8.16427 | 34825 ft | 414 kts | 131° |
| 2026-05-05 17:19 | 50.53029 | 8.23505 | 34811 ft | 414 kts | 131° |
| 2026-05-05 17:19 | 50.49429 | 8.30568 | 34820 ft | 414 kts | 131° |
| 2026-05-05 17:20 | 50.45822 | 8.37623 | 34811 ft | 414 kts | 132° |
| 2026-05-05 17:20 | 50.42210 | 8.44650 | 34821 ft | 414 kts | 132° |
| 2026-05-05 17:21 | 50.38597 | 8.51675 | 34822 ft | 414 kts | 132° |
| 2026-05-05 17:22 | 50.32900 | 8.61715 | 34826 ft | 412 kts | 136° |
| 2026-05-05 17:22 | 50.28932 | 8.68154 | 34824 ft | 411 kts | 136° |
| 2026-05-05 17:23 | 50.24995 | 8.74623 | 34828 ft | 411 kts | 136° |
| 2026-05-05 17:23 | 50.21088 | 8.81143 | 34831 ft | 411 kts | 135° |
| 2026-05-05 17:24 | 50.17178 | 8.87660 | 34829 ft | 411 kts | 136° |
| 2026-05-05 17:24 | 50.13259 | 8.94149 | 34831 ft | 411 kts | 136° |
| 2026-05-05 17:25 | 50.09334 | 9.00619 | 34828 ft | 411 kts | 136° |
| 2026-05-05 17:25 | 50.05407 | 9.07094 | 34829 ft | 411 kts | 135° |
| 2026-05-05 17:26 | 50.01473 | 9.13565 | 34822 ft | 411 kts | 135° |
| 2026-05-05 17:26 | 49.97543 | 9.20008 | 34827 ft | 411 kts | 136° |
| 2026-05-05 17:27 | 49.93603 | 9.26444 | 34827 ft | 411 kts | 136° |
| 2026-05-05 17:27 | 49.89692 | 9.32837 | 34827 ft | 411 kts | 136° |
| 2026-05-05 17:28 | 49.85752 | 9.39263 | 34831 ft | 411 kts | 136° |
| 2026-05-05 17:28 | 49.81806 | 9.45681 | 34827 ft | 411 kts | 136° |
| 2026-05-05 17:29 | 49.77846 | 9.52090 | 34825 ft | 412 kts | 136° |
| 2026-05-05 17:29 | 49.73876 | 9.58494 | 34827 ft | 412 kts | 136° |
| 2026-05-05 17:30 | 49.69899 | 9.64904 | 35246 ft | 413 kts | 136° |
| 2026-05-05 17:30 | 49.67906 | 9.68105 | 35531 ft | 414 kts | 136° |
| 2026-05-05 17:30 | 49.65903 | 9.71316 | 35786 ft | 415 kts | 136° |
| 2026-05-05 17:30 | 49.64574 | 9.73443 | 35952 ft | 416 kts | 136° |
| 2026-05-05 17:31 | 49.62562 | 9.76664 | 36192 ft | 417 kts | 136° |
| 2026-05-05 17:31 | 49.60546 | 9.79891 | 36431 ft | 419 kts | 137° |
| 2026-05-05 17:31 | 49.58522 | 9.83126 | 36670 ft | 420 kts | 137° |
| 2026-05-05 17:31 | 49.56488 | 9.86370 | 36811 ft | 422 kts | 137° |
| 2026-05-05 17:32 | 49.54436 | 9.89644 | 36834 ft | 428 kts | 137° |
| 2026-05-05 17:32 | 49.50258 | 9.96292 | 36831 ft | 434 kts | 137° |
| 2026-05-05 17:33 | 49.46051 | 10.02966 | 36843 ft | 435 kts | 137° |
| 2026-05-05 17:33 | 49.41832 | 10.09650 | 36833 ft | 435 kts | 137° |
| 2026-05-05 17:34 | 49.37619 | 10.16313 | 36844 ft | 435 kts | 137° |
| 2026-05-05 17:34 | 49.33397 | 10.22966 | 36849 ft | 435 kts | 137° |
| 2026-05-05 17:35 | 49.29167 | 10.29605 | 36837 ft | 435 kts | 137° |
| 2026-05-05 17:35 | 49.24923 | 10.36235 | 36839 ft | 436 kts | 138° |
| 2026-05-05 17:36 | 49.20652 | 10.42816 | 36862 ft | 436 kts | 139° |
| 2026-05-05 17:36 | 49.16299 | 10.49274 | 36874 ft | 436 kts | 140° |
| 2026-05-05 17:37 | 49.11934 | 10.55676 | 36877 ft | 436 kts | 140° |
| 2026-05-05 17:37 | 49.07567 | 10.62107 | 36879 ft | 436 kts | 139° |
| 2026-05-05 17:38 | 49.03240 | 10.68498 | 36857 ft | 436 kts | 140° |
| 2026-05-05 17:38 | 48.98875 | 10.74929 | 36863 ft | 436 kts | 140° |
| 2026-05-05 17:39 | 48.94514 | 10.81342 | 36850 ft | 436 kts | 140° |
| 2026-05-05 17:39 | 48.90133 | 10.87756 | 36847 ft | 436 kts | 140° |
| 2026-05-05 17:40 | 48.85755 | 10.94134 | 36828 ft | 436 kts | 140° |
| 2026-05-05 17:40 | 48.81378 | 11.00514 | 36798 ft | 436 kts | 140° |
| 2026-05-05 17:41 | 48.76989 | 11.06906 | 36792 ft | 437 kts | 141° |
| 2026-05-05 17:41 | 48.72599 | 11.13271 | 36792 ft | 437 kts | 141° |
| 2026-05-05 17:42 | 48.68194 | 11.19635 | 36800 ft | 438 kts | 141° |
| 2026-05-05 17:42 | 48.63789 | 11.26003 | 36804 ft | 439 kts | 140° |
| 2026-05-05 17:43 | 48.59596 | 11.32737 | 36811 ft | 441 kts | 136° |
| 2026-05-05 17:43 | 48.55543 | 11.39717 | 36782 ft | 442 kts | 136° |
| 2026-05-05 17:44 | 48.51456 | 11.46658 | 36805 ft | 443 kts | 137° |
| 2026-05-05 17:44 | 48.47328 | 11.53480 | 36796 ft | 443 kts | 137° |
| 2026-05-05 17:45 | 48.43147 | 11.60331 | 36793 ft | 444 kts | 137° |
| 2026-05-05 17:45 | 48.38968 | 11.67192 | 36795 ft | 445 kts | 137° |
| 2026-05-05 17:46 | 48.34783 | 11.74065 | 36778 ft | 445 kts | 137° |
| 2026-05-05 17:46 | 48.30589 | 11.80930 | 36787 ft | 446 kts | 137° |
| 2026-05-05 17:47 | 48.26387 | 11.87791 | 36795 ft | 447 kts | 137° |
| 2026-05-05 17:47 | 48.22174 | 11.94643 | 36802 ft | 447 kts | 137° |
| 2026-05-05 17:48 | 48.17956 | 12.01504 | 36806 ft | 447 kts | 137° |
| 2026-05-05 17:48 | 48.13737 | 12.08349 | 36785 ft | 447 kts | 137° |
| 2026-05-05 17:49 | 48.09502 | 12.15187 | 36793 ft | 448 kts | 137° |
| 2026-05-05 17:49 | 48.05259 | 12.22023 | 36798 ft | 449 kts | 137° |
| 2026-05-05 17:50 | 48.01032 | 12.28803 | 36800 ft | 449 kts | 137° |
| 2026-05-05 17:50 | 47.96768 | 12.35625 | 36797 ft | 449 kts | 137° |
| 2026-05-05 17:51 | 47.92511 | 12.42443 | 36803 ft | 449 kts | 137° |
| 2026-05-05 17:51 | 47.88240 | 12.49257 | 36807 ft | 449 kts | 137° |
| 2026-05-05 17:52 | 47.83960 | 12.56050 | 36813 ft | 450 kts | 137° |
| 2026-05-05 17:52 | 47.79676 | 12.62836 | 36814 ft | 450 kts | 137° |
| 2026-05-05 17:53 | 47.75393 | 12.69621 | 36816 ft | 450 kts | 137° |
| 2026-05-05 17:53 | 47.71099 | 12.76381 | 36787 ft | 450 kts | 137° |
| 2026-05-05 17:54 | 47.66785 | 12.83130 | 36796 ft | 450 kts | 138° |
| 2026-05-05 17:54 | 47.62374 | 12.89719 | 36803 ft | 450 kts | 140° |
| 2026-05-05 17:55 | 47.57898 | 12.96223 | 36812 ft | 450 kts | 140° |
| 2026-05-05 17:55 | 47.53433 | 13.02731 | 36824 ft | 451 kts | 139° |
| 2026-05-05 17:56 | 47.48989 | 13.09269 | 36810 ft | 451 kts | 139° |
| 2026-05-05 17:56 | 47.44544 | 13.15818 | 36830 ft | 452 kts | 139° |
| 2026-05-05 17:57 | 47.40074 | 13.22360 | 36831 ft | 452 kts | 139° |
| 2026-05-05 17:57 | 47.35595 | 13.28888 | 36861 ft | 452 kts | 139° |
| 2026-05-05 17:58 | 47.31124 | 13.35342 | 36865 ft | 452 kts | 140° |
| 2026-05-05 17:58 | 47.26476 | 13.41662 | 36867 ft | 451 kts | 141° |
| 2026-05-05 17:59 | 47.21833 | 13.47806 | 36869 ft | 452 kts | 141° |
| 2026-05-05 17:59 | 47.17160 | 13.54026 | 36870 ft | 453 kts | 141° |
| 2026-05-05 18:00 | 47.12503 | 13.60280 | 36890 ft | 454 kts | 141° |
| 2026-05-05 18:00 | 47.07843 | 13.66549 | 36900 ft | 455 kts | 141° |
| 2026-05-05 18:01 | 47.03162 | 13.72812 | 36920 ft | 455 kts | 140° |
| 2026-05-05 18:01 | 46.98470 | 13.79054 | 36923 ft | 456 kts | 140° |
| 2026-05-05 18:02 | 46.93773 | 13.85284 | 36935 ft | 456 kts | 141° |
| 2026-05-05 18:02 | 46.89069 | 13.91520 | 36925 ft | 456 kts | 141° |
| 2026-05-05 18:03 | 46.84367 | 13.97754 | 36941 ft | 456 kts | 141° |
| 2026-05-05 18:03 | 46.79661 | 14.03972 | 36918 ft | 457 kts | 141° |
| 2026-05-05 18:04 | 46.74938 | 14.10179 | 36943 ft | 457 kts | 141° |
| 2026-05-05 18:04 | 46.70214 | 14.16373 | 36951 ft | 457 kts | 141° |
| 2026-05-05 18:05 | 46.65481 | 14.22563 | 36957 ft | 457 kts | 141° |
| 2026-05-05 18:05 | 46.60788 | 14.28702 | 36959 ft | 457 kts | 141° |
| 2026-05-05 18:06 | 46.56027 | 14.34910 | 36943 ft | 457 kts | 141° |
| 2026-05-05 18:06 | 46.51290 | 14.41064 | 36954 ft | 457 kts | 141° |
| 2026-05-05 18:07 | 46.46576 | 14.47175 | 36958 ft | 457 kts | 141° |
| 2026-05-05 18:07 | 46.41829 | 14.53311 | 36980 ft | 457 kts | 141° |
| 2026-05-05 18:08 | 46.37078 | 14.59434 | 36994 ft | 457 kts | 141° |
| 2026-05-05 18:08 | 46.32321 | 14.65557 | 36995 ft | 458 kts | 142° |
| 2026-05-05 18:09 | 46.27553 | 14.71676 | 36992 ft | 459 kts | 142° |
| 2026-05-05 18:09 | 46.22777 | 14.77802 | 36995 ft | 459 kts | 142° |
| 2026-05-05 18:10 | 46.18002 | 14.83907 | 36998 ft | 459 kts | 142° |
| 2026-05-05 18:10 | 46.13209 | 14.90006 | 36996 ft | 459 kts | 142° |
| 2026-05-05 18:11 | 46.08458 | 14.96048 | 36992 ft | 459 kts | 142° |
| 2026-05-05 18:11 | 46.03672 | 15.02125 | 36994 ft | 458 kts | 142° |
| 2026-05-05 18:12 | 45.98889 | 15.08188 | 36989 ft | 458 kts | 142° |
| 2026-05-05 18:12 | 45.94093 | 15.14245 | 36998 ft | 458 kts | 142° |
| 2026-05-05 18:13 | 45.89300 | 15.20289 | 36979 ft | 458 kts | 142° |
| 2026-05-05 18:13 | 45.84502 | 15.26318 | 36977 ft | 459 kts | 142° |
| 2026-05-05 18:14 | 45.79693 | 15.32330 | 36973 ft | 459 kts | 142° |
| 2026-05-05 18:14 | 45.75224 | 15.38895 | 36977 ft | 464 kts | 133° |
| 2026-05-05 18:15 | 45.71107 | 15.46002 | 36976 ft | 464 kts | 133° |
| 2026-05-05 18:15 | 45.66976 | 15.53098 | 37003 ft | 464 kts | 133° |
| 2026-05-05 18:16 | 45.62840 | 15.60183 | 36998 ft | 464 kts | 133° |
| 2026-05-05 18:16 | 45.59396 | 15.66069 | 36998 ft | 464 kts | 133° |
| 2026-05-05 18:17 | 45.55244 | 15.73136 | 37003 ft | 464 kts | 133° |
| 2026-05-05 18:17 | 45.51092 | 15.80184 | 36979 ft | 465 kts | 133° |
| 2026-05-05 18:18 | 45.46932 | 15.87239 | 36983 ft | 466 kts | 133° |
| 2026-05-05 18:18 | 45.42760 | 15.94310 | 37004 ft | 466 kts | 133° |
| 2026-05-05 18:19 | 45.38585 | 16.01365 | 36999 ft | 466 kts | 133° |
| 2026-05-05 18:19 | 45.34398 | 16.08409 | 36989 ft | 466 kts | 133° |
| 2026-05-05 18:20 | 45.30200 | 16.15439 | 36998 ft | 467 kts | 133° |
| 2026-05-05 18:20 | 45.26002 | 16.22470 | 36991 ft | 467 kts | 133° |
| 2026-05-05 18:21 | 45.21797 | 16.29502 | 36992 ft | 467 kts | 133° |
| 2026-05-05 18:21 | 45.17590 | 16.36524 | 36985 ft | 467 kts | 133° |
| 2026-05-05 18:22 | 45.13369 | 16.43549 | 36994 ft | 468 kts | 133° |
| 2026-05-05 18:22 | 45.09087 | 16.50491 | 36996 ft | 468 kts | 135° |
| 2026-05-05 18:23 | 45.04728 | 16.57326 | 36996 ft | 468 kts | 135° |
| 2026-05-05 18:23 | 45.00384 | 16.64117 | 37005 ft | 468 kts | 135° |
| 2026-05-05 18:24 | 44.96030 | 16.70972 | 36991 ft | 469 kts | 135° |
| 2026-05-05 18:24 | 44.91668 | 16.77844 | 36984 ft | 471 kts | 135° |
| 2026-05-05 18:25 | 44.87289 | 16.84729 | 37000 ft | 471 kts | 135° |
| 2026-05-05 18:25 | 44.82898 | 16.91597 | 37009 ft | 472 kts | 135° |
| 2026-05-05 18:26 | 44.78499 | 16.98452 | 37001 ft | 472 kts | 135° |
| 2026-05-05 18:26 | 44.74088 | 17.05316 | 36999 ft | 473 kts | 135° |
| 2026-05-05 18:27 | 44.69671 | 17.12177 | 37007 ft | 473 kts | 135° |
| 2026-05-05 18:27 | 44.65249 | 17.19030 | 37006 ft | 473 kts | 135° |
| 2026-05-05 18:28 | 44.58638 | 17.29252 | 37012 ft | 474 kts | 135° |
| 2026-05-05 18:28 | 44.54184 | 17.36098 | 37011 ft | 475 kts | 135° |
| 2026-05-05 18:29 | 44.49720 | 17.42955 | 37030 ft | 476 kts | 135° |
| 2026-05-05 18:29 | 44.45250 | 17.49807 | 37036 ft | 477 kts | 135° |
| 2026-05-05 18:30 | 44.40761 | 17.56657 | 37023 ft | 477 kts | 135° |
| 2026-05-05 18:30 | 44.36269 | 17.63501 | 37030 ft | 478 kts | 135° |
| 2026-05-05 18:31 | 44.31773 | 17.70347 | 37034 ft | 478 kts | 135° |
| 2026-05-05 18:31 | 44.27275 | 17.77173 | 37043 ft | 478 kts | 135° |
| 2026-05-05 18:32 | 44.22797 | 17.83952 | 37034 ft | 479 kts | 135° |
| 2026-05-05 18:32 | 44.18273 | 17.90781 | 37048 ft | 480 kts | 135° |
| 2026-05-05 18:33 | 44.13739 | 17.97620 | 37043 ft | 480 kts | 135° |
| 2026-05-05 18:33 | 44.09199 | 18.04455 | 37072 ft | 480 kts | 135° |
| 2026-05-05 18:34 | 44.04646 | 18.11258 | 37073 ft | 481 kts | 135° |
| 2026-05-05 18:34 | 44.00081 | 18.18067 | 37079 ft | 482 kts | 135° |
| 2026-05-05 18:35 | 43.95509 | 18.24904 | 37087 ft | 483 kts | 135° |
| 2026-05-05 18:35 | 43.90934 | 18.31723 | 37096 ft | 483 kts | 135° |
| 2026-05-05 18:36 | 43.86348 | 18.38527 | 37083 ft | 483 kts | 135° |
| 2026-05-05 18:36 | 43.81759 | 18.45325 | 37093 ft | 482 kts | 135° |
| 2026-05-05 18:37 | 43.77205 | 18.52056 | 37095 ft | 482 kts | 135° |
| 2026-05-05 18:37 | 43.72621 | 18.58808 | 37107 ft | 482 kts | 136° |
| 2026-05-05 18:38 | 43.68025 | 18.65555 | 37089 ft | 482 kts | 135° |
| 2026-05-05 18:38 | 43.63416 | 18.72310 | 37062 ft | 483 kts | 135° |
| 2026-05-05 18:39 | 43.58810 | 18.79069 | 37073 ft | 483 kts | 135° |
| 2026-05-05 18:39 | 43.54194 | 18.85821 | 37081 ft | 484 kts | 135° |
| 2026-05-05 18:40 | 43.49560 | 18.92563 | 37070 ft | 485 kts | 135° |
| 2026-05-05 18:40 | 43.44923 | 18.99310 | 37072 ft | 485 kts | 135° |
| 2026-05-05 18:41 | 43.40340 | 19.06138 | 37073 ft | 486 kts | 134° |
| 2026-05-05 18:41 | 43.35769 | 19.12998 | 37067 ft | 486 kts | 134° |
| 2026-05-05 18:42 | 43.31173 | 19.19837 | 37056 ft | 487 kts | 135° |
| 2026-05-05 18:42 | 43.26554 | 19.26660 | 37054 ft | 488 kts | 135° |
| 2026-05-05 18:43 | 43.21930 | 19.33480 | 37058 ft | 488 kts | 135° |
| 2026-05-05 18:43 | 43.17335 | 19.40244 | 37057 ft | 488 kts | 135° |
| 2026-05-05 18:44 | 43.12694 | 19.47057 | 37074 ft | 489 kts | 134° |
| 2026-05-05 18:44 | 43.08051 | 19.53854 | 37066 ft | 489 kts | 134° |
| 2026-05-05 18:45 | 43.03406 | 19.60656 | 37074 ft | 489 kts | 135° |
| 2026-05-05 18:45 | 42.98754 | 19.67448 | 37071 ft | 490 kts | 135° |
| 2026-05-05 18:46 | 42.94091 | 19.74232 | 37085 ft | 490 kts | 135° |
| 2026-05-05 18:46 | 42.89415 | 19.81000 | 37077 ft | 489 kts | 134° |
| 2026-05-05 18:47 | 42.84751 | 19.87747 | 37072 ft | 490 kts | 134° |
| 2026-05-05 18:47 | 42.80076 | 19.94513 | 37060 ft | 490 kts | 134° |
| 2026-05-05 18:48 | 42.75389 | 20.01261 | 37065 ft | 491 kts | 134° |
| 2026-05-05 18:48 | 42.70856 | 20.08221 | 37061 ft | 492 kts | 130° |
| 2026-05-05 18:49 | 42.66575 | 20.15482 | 37066 ft | 492 kts | 129° |
| 2026-05-05 18:49 | 42.62313 | 20.22750 | 37057 ft | 491 kts | 129° |
| 2026-05-05 18:50 | 42.57984 | 20.29909 | 37059 ft | 491 kts | 130° |
| 2026-05-05 18:50 | 42.53605 | 20.37023 | 37056 ft | 492 kts | 130° |
| 2026-05-05 18:51 | 42.49221 | 20.44157 | 37065 ft | 492 kts | 130° |
| 2026-05-05 18:51 | 42.44881 | 20.51247 | 37066 ft | 492 kts | 129° |
| 2026-05-05 18:52 | 42.40538 | 20.58325 | 37072 ft | 491 kts | 129° |
| 2026-05-05 18:52 | 42.36144 | 20.65474 | 37072 ft | 491 kts | 130° |
| 2026-05-05 18:53 | 42.31772 | 20.72554 | 37074 ft | 490 kts | 130° |
| 2026-05-05 18:53 | 42.27389 | 20.79615 | 37062 ft | 491 kts | 130° |
| 2026-05-05 18:54 | 42.23005 | 20.86684 | 37072 ft | 491 kts | 129° |
| 2026-05-05 18:54 | 42.18622 | 20.93750 | 37063 ft | 491 kts | 129° |
| 2026-05-05 18:55 | 42.14230 | 21.00801 | 37053 ft | 491 kts | 129° |
| 2026-05-05 18:55 | 42.09642 | 21.07621 | 37044 ft | 491 kts | 137° |
| 2026-05-05 18:56 | 42.04661 | 21.13935 | 37053 ft | 492 kts | 137° |
| 2026-05-05 18:56 | 41.99679 | 21.20237 | 37033 ft | 492 kts | 137° |
| 2026-05-05 18:57 | 41.94726 | 21.26508 | 37039 ft | 492 kts | 137° |
| 2026-05-05 18:57 | 41.89744 | 21.32807 | 37026 ft | 492 kts | 137° |
| 2026-05-05 18:58 | 41.84761 | 21.39101 | 37030 ft | 492 kts | 137° |
| 2026-05-05 18:58 | 41.79757 | 21.45396 | 37022 ft | 492 kts | 137° |
| 2026-05-05 18:59 | 41.74755 | 21.51666 | 37012 ft | 493 kts | 137° |
| 2026-05-05 18:59 | 41.69740 | 21.57933 | 37001 ft | 493 kts | 137° |
| 2026-05-05 19:00 | 41.64724 | 21.64201 | 37013 ft | 494 kts | 137° |
| 2026-05-05 19:00 | 41.59695 | 21.70477 | 37021 ft | 494 kts | 137° |
| 2026-05-05 19:01 | 41.54656 | 21.76732 | 37032 ft | 494 kts | 137° |
| 2026-05-05 19:01 | 41.49618 | 21.82979 | 37029 ft | 494 kts | 137° |
| 2026-05-05 19:02 | 41.44573 | 21.89217 | 37025 ft | 495 kts | 137° |
| 2026-05-05 19:02 | 41.39521 | 21.95461 | 37023 ft | 496 kts | 137° |
| 2026-05-05 19:03 | 41.34495 | 22.01670 | 37032 ft | 496 kts | 137° |
| 2026-05-05 19:03 | 41.29426 | 22.07898 | 37030 ft | 496 kts | 137° |
| 2026-05-05 19:04 | 41.24350 | 22.14119 | 37034 ft | 496 kts | 137° |
| 2026-05-05 19:04 | 41.19268 | 22.20337 | 37022 ft | 497 kts | 137° |
| 2026-05-05 19:05 | 41.14141 | 22.26501 | 37021 ft | 497 kts | 139° |
| 2026-05-05 19:05 | 41.08786 | 22.32322 | 37028 ft | 498 kts | 142° |
| 2026-05-05 19:06 | 41.04253 | 22.37017 | 37016 ft | 498 kts | 142° |
| 2026-05-05 19:06 | 40.98826 | 22.42705 | 37017 ft | 498 kts | 142° |
| 2026-05-05 19:07 | 40.93436 | 22.48477 | 37016 ft | 498 kts | 141° |
| 2026-05-05 19:07 | 40.88059 | 22.54270 | 37014 ft | 499 kts | 141° |
| 2026-05-05 19:08 | 40.82661 | 22.60037 | 37010 ft | 499 kts | 141° |
| 2026-05-05 19:08 | 40.77247 | 22.65767 | 37012 ft | 499 kts | 141° |
| 2026-05-05 19:09 | 40.71826 | 22.71512 | 37004 ft | 500 kts | 141° |
| 2026-05-05 19:09 | 40.66411 | 22.77260 | 36992 ft | 501 kts | 141° |
| 2026-05-05 19:10 | 40.61019 | 22.82968 | 37013 ft | 501 kts | 141° |
| 2026-05-05 19:10 | 40.55582 | 22.88700 | 37012 ft | 501 kts | 141° |
| 2026-05-05 19:11 | 40.50134 | 22.94412 | 37013 ft | 501 kts | 142° |
| 2026-05-05 19:11 | 40.44801 | 23.00298 | 37012 ft | 501 kts | 133° |
| 2026-05-05 19:12 | 40.40028 | 23.06949 | 37017 ft | 501 kts | 133° |
| 2026-05-05 19:12 | 40.35228 | 23.13579 | 37044 ft | 500 kts | 133° |
| 2026-05-05 19:13 | 40.30433 | 23.20168 | 37043 ft | 499 kts | 133° |
| 2026-05-05 19:13 | 40.25645 | 23.26751 | 37055 ft | 499 kts | 133° |
| 2026-05-05 19:14 | 40.20863 | 23.33323 | 37051 ft | 498 kts | 133° |
| 2026-05-05 19:14 | 40.16078 | 23.39883 | 37037 ft | 498 kts | 133° |
| 2026-05-05 19:15 | 40.11280 | 23.46438 | 37053 ft | 499 kts | 133° |
| 2026-05-05 19:15 | 40.06481 | 23.52988 | 37053 ft | 499 kts | 133° |
| 2026-05-05 19:16 | 40.01676 | 23.59526 | 37055 ft | 499 kts | 133° |
| 2026-05-05 19:16 | 39.96867 | 23.66056 | 37063 ft | 499 kts | 133° |
| 2026-05-05 19:17 | 39.92056 | 23.72578 | 37060 ft | 499 kts | 133° |
| 2026-05-05 19:17 | 39.87238 | 23.79082 | 37069 ft | 499 kts | 133° |
| 2026-05-05 19:18 | 39.82414 | 23.85577 | 37064 ft | 499 kts | 133° |
| 2026-05-05 19:18 | 39.77629 | 23.92023 | 37056 ft | 499 kts | 133° |
| 2026-05-05 19:19 | 39.72803 | 23.98510 | 37052 ft | 499 kts | 133° |
| 2026-05-05 19:19 | 39.67975 | 24.04981 | 37054 ft | 499 kts | 133° |
| 2026-05-05 19:20 | 39.63141 | 24.11446 | 37071 ft | 499 kts | 133° |
| 2026-05-05 19:20 | 39.58315 | 24.17900 | 37053 ft | 499 kts | 133° |
| 2026-05-05 19:21 | 39.53486 | 24.24342 | 36992 ft | 492 kts | 134° |
| 2026-05-05 19:21 | 39.48710 | 24.30700 | 37053 ft | 495 kts | 134° |
| 2026-05-05 19:22 | 39.43906 | 24.37093 | 37054 ft | 496 kts | 134° |
| 2026-05-05 19:22 | 39.39102 | 24.43489 | 37056 ft | 495 kts | 134° |
| 2026-05-05 19:23 | 39.34293 | 24.49814 | 37057 ft | 497 kts | 134° |
| 2026-05-05 19:23 | 39.29446 | 24.56189 | 37053 ft | 498 kts | 134° |
| 2026-05-05 19:24 | 39.24630 | 24.62626 | 37057 ft | 498 kts | 133° |
| 2026-05-05 19:24 | 39.19823 | 24.69074 | 37061 ft | 499 kts | 133° |
| 2026-05-05 19:25 | 39.15006 | 24.75509 | 37067 ft | 499 kts | 134° |
| 2026-05-05 19:25 | 39.10166 | 24.81920 | 37072 ft | 499 kts | 134° |
| 2026-05-05 19:26 | 39.05287 | 24.88281 | 37068 ft | 499 kts | 134° |
| 2026-05-05 19:26 | 39.00381 | 24.94607 | 37051 ft | 499 kts | 134° |
| 2026-05-05 19:27 | 38.95476 | 25.00937 | 37060 ft | 501 kts | 134° |
| 2026-05-05 19:27 | 38.90557 | 25.07292 | 37079 ft | 501 kts | 134° |
| 2026-05-05 19:28 | 38.85645 | 25.13635 | 37083 ft | 501 kts | 134° |
| 2026-05-05 19:28 | 38.80758 | 25.19924 | 37085 ft | 501 kts | 134° |
| 2026-05-05 19:29 | 38.75828 | 25.26245 | 37091 ft | 501 kts | 135° |
| 2026-05-05 19:29 | 38.70897 | 25.32549 | 37074 ft | 501 kts | 135° |
| 2026-05-05 19:30 | 38.65965 | 25.38858 | 37086 ft | 502 kts | 135° |
| 2026-05-05 19:30 | 38.61020 | 25.45159 | 37086 ft | 502 kts | 135° |
| 2026-05-05 19:31 | 38.56072 | 25.51458 | 37086 ft | 502 kts | 135° |
| 2026-05-05 19:31 | 38.51118 | 25.57757 | 37085 ft | 502 kts | 135° |
| 2026-05-05 19:32 | 38.46159 | 25.64042 | 37084 ft | 502 kts | 135° |
| 2026-05-05 19:32 | 38.41201 | 25.70310 | 37096 ft | 502 kts | 135° |
| 2026-05-05 19:33 | 38.36236 | 25.76575 | 36354 ft | 504 kts | 135° |
| 2026-05-05 19:33 | 38.33738 | 25.79732 | 35591 ft | 507 kts | 134° |
| 2026-05-05 19:33 | 38.31256 | 25.82874 | 34842 ft | 510 kts | 134° |
| 2026-05-05 19:34 | 38.28674 | 25.85996 | 34083 ft | 514 kts | 139° |
| 2026-05-05 19:34 | 38.25837 | 25.88777 | 33219 ft | 517 kts | 146° |
| 2026-05-05 19:34 | 38.22759 | 25.91158 | 32369 ft | 519 kts | 153° |
| 2026-05-05 19:35 | 38.16075 | 25.94717 | 30673 ft | 528 kts | 162° |
| 2026-05-05 19:35 | 38.12598 | 25.96303 | 29948 ft | 533 kts | 162° |
| 2026-05-05 19:35 | 38.09091 | 25.97903 | 29198 ft | 537 kts | 162° |
| 2026-05-05 19:35 | 38.05574 | 25.99505 | 28499 ft | 537 kts | 162° |
| 2026-05-05 19:36 | 38.02075 | 26.01098 | 27769 ft | 536 kts | 162° |
| 2026-05-05 19:36 | 37.98553 | 26.02697 | 27053 ft | 538 kts | 162° |
| 2026-05-05 19:36 | 37.95034 | 26.04293 | 26326 ft | 535 kts | 161° |
| 2026-05-05 19:36 | 37.91537 | 26.05876 | 25612 ft | 530 kts | 161° |
| 2026-05-05 19:37 | 37.88076 | 26.07439 | 24894 ft | 525 kts | 162° |
| 2026-05-05 19:37 | 37.84630 | 26.08878 | 24207 ft | 517 kts | 168° |
| 2026-05-05 19:37 | 37.81114 | 26.09523 | 23491 ft | 506 kts | 181° |
| 2026-05-05 19:37 | 37.77652 | 26.09214 | 22775 ft | 493 kts | 194° |
| 2026-05-05 19:38 | 37.74409 | 26.08027 | 22127 ft | 479 kts | 207° |
| 2026-05-05 19:38 | 37.71502 | 26.06098 | 21454 ft | 466 kts | 218° |
| 2026-05-05 19:38 | 37.69017 | 26.03563 | 20824 ft | 453 kts | 230° |
| 2026-05-05 19:38 | 37.66995 | 26.00578 | 20210 ft | 443 kts | 238° |
| 2026-05-05 19:39 | 37.65133 | 25.97494 | 19601 ft | 440 kts | 237° |
| 2026-05-05 19:39 | 37.63286 | 25.94442 | 18991 ft | 436 kts | 237° |
| 2026-05-05 19:39 | 37.61445 | 25.91415 | 18385 ft | 433 kts | 237° |
| 2026-05-05 19:39 | 37.59641 | 25.88459 | 17748 ft | 430 kts | 236° |
| 2026-05-05 19:40 | 37.57800 | 25.85443 | 17126 ft | 427 kts | 236° |
| 2026-05-05 19:40 | 37.55992 | 25.82490 | 16487 ft | 424 kts | 236° |
| 2026-05-05 19:40 | 37.54220 | 25.79602 | 15864 ft | 421 kts | 236° |
| 2026-05-05 19:40 | 37.52407 | 25.76652 | 15228 ft | 419 kts | 236° |
| 2026-05-05 19:41 | 37.50650 | 25.73797 | 14615 ft | 416 kts | 235° |
| 2026-05-05 19:41 | 37.48882 | 25.70927 | 13991 ft | 414 kts | 235° |
| 2026-05-05 19:41 | 37.47123 | 25.68075 | 13410 ft | 407 kts | 235° |
| 2026-05-05 19:41 | 37.45246 | 25.65496 | 13303 ft | 394 kts | 225° |
| 2026-05-05 19:42 | 37.43126 | 25.63375 | 13196 ft | 381 kts | 219° |
| 2026-05-05 19:42 | 37.41050 | 25.61415 | 13063 ft | 365 kts | 219° |
| 2026-05-05 19:42 | 37.39062 | 25.59534 | 12934 ft | 350 kts | 220° |
| 2026-05-05 19:42 | 37.37151 | 25.57722 | 12795 ft | 338 kts | 220° |
| 2026-05-05 19:43 | 37.35303 | 25.55972 | 12648 ft | 328 kts | 220° |
| 2026-05-05 19:43 | 37.33484 | 25.54251 | 12121 ft | 331 kts | 219° |
| 2026-05-05 19:43 | 37.31456 | 25.52738 | 11224 ft | 349 kts | 206° |
| 2026-05-05 19:43 | 37.29105 | 25.51772 | 10313 ft | 363 kts | 193° |
| 2026-05-05 19:44 | 37.26598 | 25.51136 | 9589 ft | 368 kts | 191° |
| 2026-05-05 19:44 | 37.24165 | 25.50549 | 9438 ft | 342 kts | 191° |
| 2026-05-05 19:44 | 37.21894 | 25.50233 | 9305 ft | 317 kts | 179° |
| 2026-05-05 19:44 | 37.19772 | 25.50402 | 9170 ft | 295 kts | 173° |
| 2026-05-05 19:45 | 37.17788 | 25.50617 | 9041 ft | 278 kts | 182° |
| 2026-05-05 19:45 | 37.15935 | 25.50150 | 8910 ft | 268 kts | 205° |
| 2026-05-05 19:45 | 37.14412 | 25.48935 | 8778 ft | 254 kts | 227° |
| 2026-05-05 19:45 | 37.13383 | 25.47224 | 8650 ft | 239 kts | 250° |
| 2026-05-05 19:46 | 37.12896 | 25.45311 | 8417 ft | 226 kts | 269° |
| 2026-05-05 19:46 | 37.12915 | 25.43387 | 8151 ft | 218 kts | 287° |
| 2026-05-05 19:46 | 37.13381 | 25.41597 | 7667 ft | 220 kts | 302° |
| 2026-05-05 19:46 | 37.14284 | 25.40041 | 7072 ft | 222 kts | 319° |
| 2026-05-05 19:47 | 37.15536 | 25.38892 | 6483 ft | 225 kts | 335° |
| 2026-05-05 19:47 | 37.17024 | 25.38273 | 5882 ft | 228 kts | 351° |
| 2026-05-05 19:47 | 37.18626 | 25.38275 | 5262 ft | 234 kts | 8° |
| 2026-05-05 19:47 | 37.20209 | 25.38824 | 4656 ft | 237 kts | 14° |
| 2026-05-05 19:48 | 37.21773 | 25.39419 | 4080 ft | 239 kts | 14° |
| 2026-05-05 19:48 | 37.23320 | 25.40005 | 4004 ft | 218 kts | 14° |
| 2026-05-05 19:48 | 37.24699 | 25.40528 | 4000 ft | 203 kts | 14° |
| 2026-05-05 19:48 | 37.26008 | 25.41019 | 3985 ft | 192 kts | 12° |
| 2026-05-05 19:49 | 37.27325 | 25.41297 | 3760 ft | 189 kts | 0° |
| 2026-05-05 19:49 | 37.28193 | 25.41293 | 3689 ft | 180 kts | 353° |
| 2026-05-05 19:49 | 37.29808 | 25.40838 | 3154 ft | 181 kts | 341° |
| 2026-05-05 19:49 | 37.30994 | 25.40353 | 2856 ft | 176 kts | 339° |
| 2026-05-05 19:50 | 37.32113 | 25.39872 | 2614 ft | 164 kts | 338° |
| 2026-05-05 19:50 | 37.33152 | 25.39420 | 2403 ft | 153 kts | 338° |
| 2026-05-05 19:50 | 37.34126 | 25.38993 | 2213 ft | 144 kts | 338° |
| 2026-05-05 19:50 | 37.35058 | 25.38579 | 2019 ft | 140 kts | 337° |
| 2026-05-05 19:51 | 37.35974 | 25.38172 | 1835 ft | 139 kts | 337° |
| 2026-05-05 19:51 | 37.36878 | 25.37772 | 1677 ft | 135 kts | 337° |
| 2026-05-05 19:51 | 37.37760 | 25.37383 | 1469 ft | 134 kts | 337° |
| 2026-05-05 19:51 | 37.38635 | 25.36997 | 1295 ft | 133 kts | 338° |
| 2026-05-05 19:52 | 37.39511 | 25.36610 | 1114 ft | 133 kts | 338° |
| 2026-05-05 19:52 | 37.40388 | 25.36222 | 940 ft | 133 kts | 338° |
| 2026-05-05 19:52 | 37.41265 | 25.35834 | 767 ft | 134 kts | 339° |
| 2026-05-05 19:52 | 37.42141 | 25.35429 | 591 ft | 135 kts | 338° |
| 2026-05-05 19:53 | 37.43021 | 25.35024 | 412 ft | 131 kts | 340° |
| 2026-05-05 19:53 | 37.43705 | 25.34733 | 411 ft | 58 kts | 341° |
| 2026-05-05 19:53 | 37.43887 | 25.34654 | 412 ft | 38 kts | 341° |
| 2026-05-05 19:53 | 37.44220 | 25.34511 | 406 ft | 32 kts | 341° |
| 2026-05-05 19:54 | 37.44308 | 25.34479 | 405 ft | 10 kts | 239° |
| 2026-05-05 19:54 | 37.44264 | 25.34486 | 402 ft | 10 kts | 154° |
| 2026-05-05 19:54 | 37.44191 | 25.34522 | 407 ft | 12 kts | 160° |
| 2026-05-05 19:54 | 37.44105 | 25.34560 | 408 ft | 15 kts | 161° |
| 2026-05-05 19:55 | 37.43967 | 25.34620 | 408 ft | 17 kts | 160° |
| 2026-05-05 19:55 | 37.43889 | 25.34655 | 412 ft | 18 kts | 160° |
| 2026-05-05 19:55 | 37.43757 | 25.34714 | 411 ft | 22 kts | 160° |
| 2026-05-05 19:55 | 37.43617 | 25.34675 | 408 ft | 20 kts | 202° |
| 2026-05-05 19:56 | 37.43528 | 25.34696 | 408 ft | 7 kts | 195° |
| 2026-05-05 19:56 | 37.43504 | 25.34635 | 407 ft | 6 kts | 252° |
| 2026-05-05 19:56 | 37.43503 | 25.34632 | 407 ft | 0 kts | 252° |